Aviation Digital Data Service (ADDS)

Output produced by TAFs form (2140 UTC 28 March 2017)
found at http://aviationweather.gov/adds/tafs/
 
KTUS 281737Z 2818/2918 27008KT P6SM SCT070 
     FM281900 30016G26KT P6SM SCT080 
     FM290300 27008KT P6SM SCT110 
     FM290700 16006KT P6SM FEW120